Time;durP1;ratioP1;P1;durP2;ratioP2;P2;SDS_P1;SDS_P2;PMS_P1;PMS_P2;Temp;Humidity;BMP_temperature;BMP_pressure;BME280_temperature;BME280_humidity;BME280_pressure;Samples;Min_cycle;Max_cycle;Signal;HPM_P1;HPM_P2
2023/10/08 00:00:49;;;;;;;1999.90;999.90;;;;;;;17.79;71.20;96123.91;5066517;28;20169;-50
2023/10/08 00:03:17;;;;;;;1999.90;999.90;;;;;;;17.83;71.66;96124.59;5066412;28;20166;-46
2023/10/08 00:05:42;;;;;;;1999.90;999.90;;;;;;;17.85;72.00;96121.41;5066168;28;20217;-51
2023/10/08 00:08:09;;;;;;;1999.90;999.90;;;;;;;17.90;71.98;96112.56;5066593;28;20192;-51
2023/10/08 00:10:42;;;;;;;1999.90;999.90;;;;;;;18.00;71.96;96108.78;5066355;28;20203;-50
2023/10/08 00:13:09;;;;;;;1999.90;999.90;;;;;;;18.09;71.46;96100.63;5066075;28;20245;-50
2023/10/08 00:15:36;;;;;;;1999.90;999.90;;;;;;;18.06;72.09;96093.97;5066293;28;20170;-47
2023/10/08 00:18:04;;;;;;;1999.90;999.90;;;;;;;18.08;72.39;96099.09;5066799;28;20170;-49
2023/10/08 00:20:35;;;;;;;1999.90;999.90;;;;;;;18.17;72.01;96088.19;5066285;28;20475;-48
2023/10/08 00:23:07;;;;;;;1999.90;999.90;;;;;;;18.16;72.31;96086.63;5066544;28;20188;-51
2023/10/08 00:25:34;;;;;;;1999.90;999.90;;;;;;;18.15;72.72;96076.78;5066695;28;20175;-49
2023/10/08 00:28:01;;;;;;;1999.90;999.90;;;;;;;18.21;72.99;96077.81;5065886;28;20170;-46
2023/10/08 00:30:27;;;;;;;1999.90;999.90;;;;;;;18.29;72.44;96090.25;5066303;28;20190;-51
2023/10/08 00:32:52;;;;;;;1999.90;999.90;;;;;;;18.30;72.71;96080.72;5065942;28;20166;-47
2023/10/08 00:35:20;;;;;;;1999.90;999.90;;;;;;;18.35;72.47;96072.69;5065929;28;20174;-49
2023/10/08 00:37:48;;;;;;;1999.90;999.90;;;;;;;18.47;71.65;96080.25;5065922;28;20170;-51
2023/10/08 00:40:14;;;;;;;1999.90;999.90;;;;;;;18.51;71.66;96074.66;5065571;28;20180;-47
2023/10/08 00:42:45;;;;;;;1999.90;999.90;;;;;;;18.58;71.33;96075.22;5065826;28;20173;-49
2023/10/08 00:45:14;;;;;;;1999.90;999.90;;;;;;;18.65;70.65;96074.25;5066270;28;20165;-48
2023/10/08 00:47:43;;;;;;;1999.90;999.90;;;;;;;18.62;71.72;96072.34;5065731;28;20173;-48
2023/10/08 00:50:31;;;;;;;1999.90;999.90;;;;;;;18.66;71.69;96071.03;5065774;28;20245;-44
2023/10/08 00:53:00;;;;;;;1999.90;999.90;;;;;;;18.66;71.88;96075.78;5065546;28;20166;-46
2023/10/08 00:55:29;;;;;;;1999.90;999.90;;;;;;;18.75;71.24;96068.41;5066345;28;20177;-46
2023/10/08 00:58:07;;;;;;;1999.90;999.90;;;;;;;18.83;70.50;96057.91;5065927;28;20236;-49
2023/10/08 01:00:37;;;;;;;1999.90;999.90;;;;;;;18.85;70.40;96061.00;5064664;28;20181;-47
2023/10/08 01:03:14;;;;;;;1999.90;999.90;;;;;;;18.87;70.53;96064.13;5065952;28;20194;-45
2023/10/08 01:05:46;;;;;;;1999.90;999.90;;;;;;;18.87;70.28;96058.56;5065682;28;20266;-47
2023/10/08 01:08:17;;;;;;;1999.90;999.90;;;;;;;18.90;70.30;96052.91;5065623;28;20269;-51
2023/10/08 01:10:43;;;;;;;1999.90;999.90;;;;;;;18.95;70.44;96062.69;5065106;28;20201;-48
2023/10/08 01:13:15;;;;;;;1999.90;999.90;;;;;;;18.95;70.24;96055.13;5065764;28;20208;-44
2023/10/08 01:15:41;;;;;;;1999.90;999.90;;;;;;;18.99;70.01;96060.59;5065638;28;20162;-45
2023/10/08 01:18:14;;;;;;;1999.90;999.90;;;;;;;18.97;70.61;96057.47;5065036;28;20181;-47
2023/10/08 01:20:53;;;;;;;1999.90;999.90;;;;;;;18.99;70.51;96049.50;5065941;28;20172;-45
2023/10/08 01:23:22;;;;;;;1999.90;999.90;;;;;;;19.00;71.30;96059.34;5065078;28;20173;-45
2023/10/08 01:25:52;;;;;;;1999.90;999.90;;;;;;;19.02;70.90;96062.47;5065495;28;20193;-46
2023/10/08 01:30:53;;;;;;;1999.90;999.90;;;;;;;19.02;71.76;96065.25;5065826;28;20193;-46
2023/10/08 01:33:20;;;;;;;1999.90;999.90;;;;;;;19.10;71.11;96055.50;5064760;28;20174;-46
2023/10/08 01:35:48;;;;;;;1999.90;999.90;;;;;;;19.05;71.89;96062.34;5065245;28;20166;-47
2023/10/08 01:38:14;;;;;;;1999.90;999.90;;;;;;;19.14;71.21;96050.63;5064749;28;20254;-45
2023/10/08 01:40:42;;;;;;;1999.90;999.90;;;;;;;19.18;71.52;96040.22;5065203;28;20170;-47
2023/10/08 01:43:10;;;;;;;1999.90;999.90;;;;;;;19.12;72.15;96045.53;5065111;28;20203;-48
2023/10/08 01:45:40;;;;;;;1999.90;999.90;;;;;;;19.12;72.42;96047.50;5064939;28;20201;-45
2023/10/08 01:48:09;;;;;;;1999.90;999.90;;;;;;;19.08;72.36;96053.16;5065084;28;20228;-45
2023/10/08 01:50:35;;;;;;;1999.90;999.90;;;;;;;19.19;70.93;96047.28;5064944;28;20225;-48
2023/10/08 01:53:00;;;;;;;1999.90;999.90;;;;;;;19.19;70.71;96047.28;5064985;28;20178;-47
2023/10/08 01:55:26;;;;;;;1999.90;999.90;;;;;;;19.13;70.60;96038.00;5064452;28;20173;-49
2023/10/08 01:57:52;;;;;;;1999.90;999.90;;;;;;;19.14;70.12;96036.78;5064281;28;20201;-49
2023/10/08 02:00:22;;;;;;;1999.90;999.90;;;;;;;19.15;69.58;96044.66;5064950;28;20182;-48
2023/10/08 02:02:50;;;;;;;1999.90;999.90;;;;;;;19.12;70.03;96036.44;5064756;28;20177;-47
2023/10/08 02:05:18;;;;;;;1999.90;999.90;;;;;;;19.19;69.33;96036.22;5064571;28;20225;-47
2023/10/08 02:07:44;;;;;;;1999.90;999.90;;;;;;;19.12;69.51;96025.34;5064714;28;20176;-49
2023/10/08 02:10:10;;;;;;;1999.90;999.90;;;;;;;19.16;69.13;96031.59;5064590;28;20197;-47
2023/10/08 02:12:43;;;;;;;1999.90;999.90;;;;;;;19.11;70.37;96040.44;5064059;28;20244;-49
2023/10/08 02:15:11;;;;;;;1999.90;999.90;;;;;;;19.15;69.19;96038.31;5064158;28;20215;-50
2023/10/08 02:17:36;;;;;;;1999.90;999.90;;;;;;;19.15;69.01;96041.09;5064813;28;20174;-50
2023/10/08 02:20:05;;;;;;;1999.90;999.90;;;;;;;19.16;69.25;96042.66;5064101;28;20249;-48
2023/10/08 02:22:31;;;;;;;1999.90;999.90;;;;;;;19.13;70.46;96035.22;5064495;28;20241;-48
2023/10/08 02:25:01;;;;;;;1999.90;999.90;;;;;;;19.10;70.11;96033.34;5064444;28;20178;-49
2023/10/08 02:27:27;;;;;;;1999.90;999.90;;;;;;;19.06;71.33;96025.13;5064721;28;20174;-47
2023/10/08 02:29:52;;;;;;;1999.90;999.90;;;;;;;19.07;71.43;96028.69;5064360;28;20178;-47
2023/10/08 02:32:18;;;;;;;1999.90;999.90;;;;;;;19.09;70.92;96020.72;5064357;28;20192;-52
2023/10/08 02:34:44;;;;;;;1999.90;999.90;;;;;;;19.13;71.72;96027.69;5063511;28;20245;-55
2023/10/08 02:37:10;;;;;;;1999.90;999.90;;;;;;;19.10;71.62;96031.34;5064267;28;20244;-53
2023/10/08 02:39:40;;;;;;;1999.90;999.90;;;;;;;19.08;71.78;96030.22;5063872;28;20174;-48
2023/10/08 02:42:10;;;;;;;1999.90;999.90;;;;;;;19.05;71.59;96028.38;5063609;28;20196;-49
2023/10/08 02:44:41;;;;;;;1999.90;999.90;;;;;;;19.05;71.43;96020.06;5064315;28;20162;-50
2023/10/08 02:47:11;;;;;;;1999.90;999.90;;;;;;;18.96;72.91;96017.16;5064141;28;20224;-50
2023/10/08 02:49:41;;;;;;;1999.90;999.90;;;;;;;18.91;73.70;96012.94;5063627;28;20174;-47
2023/10/08 02:52:08;;;;;;;1999.90;999.90;;;;;;;18.89;74.33;96017.38;5063434;28;20202;-48
2023/10/08 02:54:36;;;;;;;1999.90;999.90;;;;;;;18.85;74.28;96017.50;5063344;28;20180;-51
2023/10/08 02:57:04;;;;;;;1999.90;999.90;;;;;;;18.87;74.17;96014.28;5063424;28;20189;-51
2023/10/08 02:59:42;;;;;;;1999.90;999.90;;;;;;;18.84;74.66;96015.16;5063381;28;20205;-47
2023/10/08 03:02:21;;;;;;;1999.90;999.90;;;;;;;18.87;73.82;96006.75;5064045;28;20246;-50
2023/10/08 03:04:50;;;;;;;1999.90;999.90;;;;;;;18.81;75.07;96007.75;5064382;28;20170;-49
2023/10/08 03:07:32;;;;;;;1999.90;999.90;;;;;;;18.83;75.17;96003.31;5063510;28;20178;-49
2023/10/08 03:10:16;;;;;;;1999.90;999.90;;;;;;;18.81;75.16;96003.00;5063397;28;20176;-47
2023/10/08 03:12:42;;;;;;;1999.90;999.90;;;;;;;18.71;77.31;96004.06;5063919;28;20201;-50
2023/10/08 03:15:27;;;;;;;1999.90;999.90;;;;;;;18.68;76.98;96007.72;5063908;28;20208;-49
2023/10/08 03:17:57;;;;;;;1999.90;999.90;;;;;;;18.66;78.13;96004.63;5063891;28;20176;-49
2023/10/08 03:26:10;;;;;;;1999.90;999.90;;;;;;;18.64;78.53;96006.25;5068199;28;20231;-48
2023/10/08 03:28:37;;;;;;;1999.90;999.90;;;;;;;18.63;79.00;95999.19;5067718;28;20173;-48
2023/10/08 03:31:07;;;;;;;1999.90;999.90;;;;;;;18.64;78.95;95992.44;5067457;28;20221;-46
2023/10/08 03:33:38;;;;;;;1999.90;999.90;;;;;;;18.59;79.95;95988.25;5066798;28;20170;-47
2023/10/08 03:36:33;;;;;;;1999.90;999.90;;;;;;;18.61;79.94;95996.84;5066898;28;20170;-46
2023/10/08 03:39:09;;;;;;;1999.90;999.90;;;;;;;18.59;80.59;95992.97;5067030;28;20173;-48
2023/10/08 03:41:39;;;;;;;1999.90;999.90;;;;;;;18.58;81.01;95996.97;5067351;28;20236;-45
2023/10/08 03:44:06;;;;;;;1999.90;999.90;;;;;;;18.56;81.81;96004.94;5067367;28;20170;-46
2023/10/08 03:46:39;;;;;;;1999.90;999.90;;;;;;;18.55;82.22;95997.84;5066863;28;20184;-44
2023/10/08 03:49:50;;;;;;;1999.90;999.90;;;;;;;18.51;83.33;95997.19;5067299;28;20173;-44
2023/10/08 03:51:57;;;;;;;1999.90;999.90;;;;;;;18.48;84.30;95993.31;5061816;28;20221;-44
2023/10/08 03:54:35;;;;;;;1999.90;999.90;;;;;;;18.49;84.54;95994.06;5067156;28;20170;-44
2023/10/08 03:57:04;;;;;;;1999.90;999.90;;;;;;;18.48;85.17;95998.06;5066989;28;20198;-46
2023/10/08 04:02:14;;;;;;;1999.90;999.90;;;;;;;18.44;86.27;95989.09;5067623;28;20181;-47
2023/10/08 04:04:56;;;;;;;1999.90;999.90;;;;;;;18.43;86.32;95995.84;5066315;28;20184;-48
2023/10/08 04:12:34;;;;;;;1999.90;999.90;;;;;;;18.34;88.91;95992.91;5067500;28;20158;-48
2023/10/08 04:15:09;;;;;;;1999.90;999.90;;;;;;;18.34;89.50;95987.38;5066290;28;20198;-47
2023/10/08 04:17:50;;;;;;;1999.90;999.90;;;;;;;18.32;89.86;95995.34;5066872;28;20219;-47
2023/10/08 04:23:04;;;;;;;1999.90;999.90;;;;;;;18.30;91.17;95998.53;5067183;28;20165;-45
2023/10/08 04:25:30;;;;;;;1999.90;999.90;;;;;;;18.32;92.08;95993.34;5066106;28;20173;-44
2023/10/08 04:28:00;;;;;;;1999.90;999.90;;;;;;;18.32;92.24;95996.09;5066556;28;20174;-46
2023/10/08 04:30:32;;;;;;;1999.90;999.90;;;;;;;18.33;93.51;95996.88;5065947;28;20268;-50
2023/10/08 04:33:06;;;;;;;1999.90;999.90;;;;;;;18.35;92.97;96002.75;5066220;28;20181;-48
2023/10/08 04:38:25;;;;;;;1999.90;999.90;;;;;;;18.41;91.97;95992.72;5066905;28;20157;-48
2023/10/08 04:40:52;;;;;;;1999.90;999.90;;;;;;;18.42;92.03;95992.28;5066362;28;20173;-49
2023/10/08 04:43:25;;;;;;;1999.90;999.90;;;;;;;18.42;91.85;95983.19;5066237;28;20340;-51
2023/10/08 04:45:57;;;;;;;1999.90;999.90;;;;;;;18.41;91.92;95987.19;5065422;28;20303;-50
2023/10/08 04:48:29;;;;;;;1999.90;999.90;;;;;;;18.42;91.59;95988.72;5065925;28;20200;-52
2023/10/08 04:51:02;;;;;;;1999.90;999.90;;;;;;;18.43;91.43;95990.31;5066144;28;20178;-49
2023/10/08 04:53:35;;;;;;;1999.90;999.90;;;;;;;18.40;91.97;95988.41;5066157;28;20154;-47
2023/10/08 04:56:05;;;;;;;1999.90;999.90;;;;;;;18.36;92.83;95994.03;5066146;28;20234;-50
2023/10/08 04:58:40;;;;;;;1999.90;999.90;;;;;;;18.35;94.44;96000.00;5065457;28;20217;-46
2023/10/08 05:01:18;;;;;;;1999.90;999.90;;;;;;;18.31;95.46;95993.75;5066004;28;20272;-47
2023/10/08 05:09:10;;;;;;;1999.90;999.90;;;;;;;18.21;100.00;96000.41;5066389;28;20158;-47
2023/10/08 05:25:07;;;;;;;1999.90;999.90;;;;;;;18.19;97.34;96013.88;5066035;28;20189;-48
2023/10/08 05:30:17;;;;;;;1999.90;999.90;;;;;;;18.22;97.20;96013.00;5065893;28;20186;-45
2023/10/08 05:43:55;;;;;;;1999.90;999.90;;;;;;;18.23;98.94;96056.03;5065629;28;20162;-45
2023/10/08 05:49:02;;;;;;;1999.90;999.90;;;;;;;18.34;92.01;96068.34;5065531;28;20170;-52
2023/10/08 05:54:35;;;;;;;1999.90;999.90;;;;;;;18.34;93.58;96078.63;5065569;28;20154;-46
2023/10/08 05:57:14;;;;;;;1999.90;999.90;;;;;;;18.35;92.19;96082.97;5064945;28;20190;-46
2023/10/08 06:03:00;;;;;;;1999.90;999.90;;;;;;;18.36;94.52;96101.16;5065010;28;20153;-49
2023/10/08 06:13:10;;;;;;;1999.90;999.90;;;;;;;18.51;84.30;96129.97;5065123;28;20164;-46
2023/10/08 06:18:28;;;;;;;1999.90;999.90;;;;;;;18.48;89.20;96119.78;5064813;28;20151;-46
2023/10/08 06:21:07;;;;;;;1999.90;999.90;;;;;;;18.45;88.71;96121.44;5064414;28;20174;-47
2023/10/08 06:23:35;;;;;;;1999.90;999.90;;;;;;;18.52;87.35;96123.22;5064441;28;20166;-48
2023/10/08 06:26:05;;;;;;;1999.90;999.90;;;;;;;18.62;87.80;96122.16;5063500;28;20177;-57
2023/10/08 06:28:34;;;;;;;1999.90;999.90;;;;;;;18.70;88.93;96132.59;5064566;28;20194;-56
2023/10/08 06:31:03;;;;;;;1999.90;999.90;;;;;;;18.78;86.31;96138.69;5063646;28;20194;-56
2023/10/08 06:33:33;;;;;;;1999.90;999.90;;;;;;;18.82;85.42;96142.16;5064230;28;20173;-55
2023/10/08 06:38:38;;;;;;;1999.90;999.90;;;;;;;19.34;80.09;96135.09;5064841;28;20146;-54
2023/10/08 06:43:49;;;;;;;1999.90;999.90;;;;;;;19.64;78.61;96124.69;5064743;28;20229;-51
2023/10/08 06:46:18;;;;;;;1999.90;999.90;;;;;;;19.69;77.38;96122.13;5064154;28;20161;-54
2023/10/08 06:48:45;;;;;;;1999.90;999.90;;;;;;;19.78;76.45;96110.38;5063614;28;20177;-52
2023/10/08 06:51:17;;;;;;;1999.90;999.90;;;;;;;20.68;75.75;96109.25;5064000;28;20297;-55
2023/10/08 06:53:47;;;;;;;1999.90;999.90;;;;;;;21.01;70.15;96116.00;5064201;28;20216;-46
2023/10/08 06:56:18;;;;;;;1999.90;999.90;;;;;;;21.51;67.42;96109.34;5063520;28;20208;-48
2023/10/08 06:58:52;;;;;;;1999.90;999.90;;;;;;;21.63;65.29;96106.47;5064150;28;20210;-49
2023/10/08 07:01:21;;;;;;;1999.90;999.90;;;;;;;22.21;63.81;96120.41;5068211;28;20210;-49
2023/10/08 07:03:49;;;;;;;1999.90;999.90;;;;;;;22.48;63.23;96128.06;5067642;28;20170;-47
2023/10/08 07:06:17;;;;;;;1999.90;999.90;;;;;;;22.79;61.96;96125.94;5067446;28;20295;-47
2023/10/08 07:08:52;;;;;;;1999.90;999.90;;;;;;;23.10;60.52;96124.50;5067549;28;20169;-51
2023/10/08 07:11:18;;;;;;;1999.90;999.90;;;;;;;23.80;57.17;96128.81;5067952;28;20193;-46
2023/10/08 07:13:43;;;;;;;1999.90;999.90;;;;;;;24.63;54.05;96111.94;5067330;28;20193;-47
2023/10/08 07:16:11;;;;;;;1999.90;999.90;;;;;;;24.35;52.99;96116.13;5067409;28;20174;-45
2023/10/08 07:18:37;;;;;;;1999.90;999.90;;;;;;;24.45;53.42;96114.84;5067037;28;20193;-50
2023/10/08 07:21:11;;;;;;;1999.90;999.90;;;;;;;24.37;52.56;96124.81;5067440;28;20170;-48
2023/10/08 07:23:53;;;;;;;1999.90;999.90;;;;;;;23.55;55.85;96141.16;5067974;28;20169;-48
2023/10/08 07:26:23;;;;;;;1999.90;999.90;;;;;;;22.89;59.22;96121.88;5067704;28;20193;-50
2023/10/08 07:28:51;;;;;;;1999.90;999.90;;;;;;;23.46;59.76;96116.09;5067625;28;20162;-50
2023/10/08 07:31:21;;;;;;;1999.90;999.90;;;;;;;24.05;56.97;96114.47;5067500;28;20193;-52
2023/10/08 07:33:56;;;;;;;1999.90;999.90;;;;;;;25.63;52.23;96106.19;5067665;28;20174;-48
2023/10/08 07:36:29;;;;;;;1999.90;999.90;;;;;;;26.27;49.80;96107.69;5067520;28;20439;-48
2023/10/08 07:38:54;;;;;;;1999.90;999.90;;;;;;;27.17;48.01;96114.69;5066819;28;20172;-48
2023/10/08 07:41:20;;;;;;;1999.90;999.90;;;;;;;27.30;46.91;96105.91;5066937;28;20193;-46
2023/10/08 07:43:55;;;;;;;1999.90;999.90;;;;;;;27.05;46.59;96101.81;5067342;28;20451;-49
2023/10/08 07:46:21;;;;;;;1999.90;999.90;;;;;;;26.06;50.32;96100.53;5067281;28;20188;-50
2023/10/08 07:48:47;;;;;;;1999.90;999.90;;;;;;;25.42;50.58;96102.50;5066819;28;20170;-47
2023/10/08 07:51:14;;;;;;;1999.90;999.90;;;;;;;24.41;53.75;96100.28;5066745;28;20190;-51
2023/10/08 07:53:41;;;;;;;1999.90;999.90;;;;;;;23.62;57.68;96107.34;5067151;28;20185;-49
2023/10/08 07:56:08;;;;;;;1999.90;999.90;;;;;;;23.22;60.55;96109.63;5066673;28;20162;-50
2023/10/08 07:58:37;;;;;;;1999.90;999.90;;;;;;;22.99;62.90;96106.69;5066497;28;20206;-48
2023/10/08 08:01:06;;;;;;;1999.90;999.90;;;;;;;22.41;65.94;96110.38;5066570;28;20173;-49
2023/10/08 08:03:38;;;;;;;1999.90;999.90;;;;;;;22.20;67.98;96119.66;5066332;28;20162;-51
2023/10/08 08:06:07;;;;;;;1999.90;999.90;;;;;;;21.86;69.69;96122.63;5066450;28;20205;-47
2023/10/08 08:08:36;;;;;;;1999.90;999.90;;;;;;;21.87;71.49;96121.44;5066360;28;20466;-48
2023/10/08 08:11:07;;;;;;;1999.90;999.90;;;;;;;21.80;71.75;96118.13;5066485;28;20197;-47
2023/10/08 08:13:35;;;;;;;1999.90;999.90;;;;;;;21.57;73.24;96118.66;5066837;28;20166;-47
2023/10/08 08:16:16;;;;;;;1999.90;999.90;;;;;;;21.39;74.83;96113.78;5066675;28;20158;-47
2023/10/08 08:18:45;;;;;;;1999.90;999.90;;;;;;;21.59;75.86;96107.81;5066605;28;20176;-46
2023/10/08 08:21:15;;;;;;;1999.90;999.90;;;;;;;21.63;75.83;96108.44;5065918;28;20158;-49
2023/10/08 08:23:47;;;;;;;1999.90;999.90;;;;;;;21.65;75.71;96112.34;5066653;28;20242;-49
2023/10/08 08:26:27;;;;;;;1999.90;999.90;;;;;;;21.77;74.58;96107.94;5066269;28;20190;-46
2023/10/08 08:29:01;;;;;;;1999.90;999.90;;;;;;;21.76;76.54;96115.50;5066529;28;20169;-45
2023/10/08 08:31:31;;;;;;;1999.90;999.90;;;;;;;21.61;76.96;96116.50;5066370;28;20189;-48
2023/10/08 08:33:59;;;;;;;1999.90;999.90;;;;;;;21.52;79.17;96125.56;5065892;28;20158;-45
2023/10/08 08:36:26;;;;;;;1999.90;999.90;;;;;;;21.58;80.74;96123.75;5065824;28;20158;-47
2023/10/08 08:38:52;;;;;;;1999.90;999.90;;;;;;;21.38;81.82;96119.78;5066117;28;20162;-52
2023/10/08 08:41:18;;;;;;;1999.90;999.90;;;;;;;21.24;83.28;96126.63;5066326;28;20237;-55
2023/10/08 08:43:48;;;;;;;1999.90;999.90;;;;;;;21.16;84.67;96130.16;5066666;28;20166;-52
2023/10/08 08:46:13;;;;;;;1999.90;999.90;;;;;;;21.08;84.07;96137.19;5065460;28;20197;-54
2023/10/08 08:48:41;;;;;;;1999.90;999.90;;;;;;;21.06;86.76;96137.66;5065684;28;20173;-49
2023/10/08 08:51:09;;;;;;;1999.90;999.90;;;;;;;21.10;87.54;96138.31;5065989;28;20186;-49
2023/10/08 08:53:35;;;;;;;1999.90;999.90;;;;;;;21.20;87.14;96141.91;5066207;28;20169;-48
2023/10/08 08:56:03;;;;;;;1999.90;999.90;;;;;;;21.21;86.81;96138.69;5065537;28;20204;-54
2023/10/08 08:58:32;;;;;;;1999.90;999.90;;;;;;;21.27;87.18;96136.09;5065481;28;20261;-51
2023/10/08 09:00:59;;;;;;;1999.90;999.90;;;;;;;21.28;87.69;96127.31;5065914;28;20162;-48
2023/10/08 09:03:30;;;;;;;1999.90;999.90;;;;;;;21.25;88.86;96125.44;5065434;28;20185;-52
2023/10/08 09:05:57;;;;;;;1999.90;999.90;;;;;;;21.20;89.91;96117.66;5065680;28;20241;-52
2023/10/08 09:08:24;;;;;;;1999.90;999.90;;;;;;;21.19;90.73;96107.78;5065154;28;20241;-49
2023/10/08 09:10:53;;;;;;;1999.90;999.90;;;;;;;21.13;92.02;96119.94;5065564;28;20198;-49
2023/10/08 09:13:25;;;;;;;1999.90;999.90;;;;;;;21.26;90.61;96113.09;5065316;28;20162;-52
2023/10/08 09:15:51;;;;;;;1999.90;999.90;;;;;;;21.36;91.81;96106.34;5065630;28;20166;-50
2023/10/08 09:18:17;;;;;;;1999.90;999.90;;;;;;;21.46;90.85;96110.69;5065246;28;20240;-50
2023/10/08 09:20:43;;;;;;;1999.90;999.90;;;;;;;21.57;93.08;96108.28;5065713;28;20237;-53
2023/10/08 09:23:21;;;;;;;1999.90;999.90;;;;;;;21.71;90.74;96116.09;5064788;28;20170;-49
2023/10/08 09:25:49;;;;;;;1999.90;999.90;;;;;;;21.76;91.19;96123.84;5065238;28;20173;-50
2023/10/08 09:28:16;;;;;;;1999.90;999.90;;;;;;;21.73;91.05;96130.34;5065434;28;20170;-51
2023/10/08 09:30:44;;;;;;;1999.90;999.90;;;;;;;21.75;91.42;96138.97;5065293;28;20190;-52
2023/10/08 09:33:15;;;;;;;1999.90;999.90;;;;;;;21.74;93.28;96145.78;5065288;28;20206;-49
2023/10/08 09:35:43;;;;;;;1999.90;999.90;;;;;;;21.65;93.86;96151.28;5065356;28;20166;-49
2023/10/08 09:38:09;;;;;;;1999.90;999.90;;;;;;;21.66;94.32;96155.59;5065504;28;20185;-52
2023/10/08 09:40:36;;;;;;;1999.90;999.90;;;;;;;21.65;95.17;96154.06;5064569;28;20166;-51
2023/10/08 09:43:03;;;;;;;1999.90;999.90;;;;;;;21.70;96.60;96150.69;5065046;28;20193;-51
2023/10/08 09:45:30;;;;;;;1999.90;999.90;;;;;;;21.72;97.77;96164.16;5064639;28;20237;-50
2023/10/08 09:47:56;;;;;;;1999.90;999.90;;;;;;;21.90;99.38;96156.69;5064549;28;20166;-47
2023/10/08 09:50:29;;;;;;;1999.90;999.90;;;;;;;22.15;97.16;96156.41;5064635;28;20196;-50
2023/10/08 09:53:10;;;;;;;1999.90;999.90;;;;;;;22.48;92.57;96160.22;5065034;28;20162;-52
2023/10/08 09:55:38;;;;;;;1999.90;999.90;;;;;;;22.65;90.27;96155.16;5065011;28;20166;-49
2023/10/08 09:58:04;;;;;;;1999.90;999.90;;;;;;;22.89;89.49;96174.81;5063957;28;20190;-50
2023/10/08 10:00:30;;;;;;;1999.90;999.90;;;;;;;23.17;88.15;96174.34;5064812;28;20185;-50
2023/10/08 10:02:59;;;;;;;1999.90;999.90;;;;;;;23.53;85.60;96184.72;5064218;28;20189;-48
2023/10/08 10:05:29;;;;;;;1999.90;999.90;;;;;;;23.67;85.32;96179.22;5064092;28;20228;-44
2023/10/08 10:07:55;;;;;;;1999.90;999.90;;;;;;;23.74;84.94;96192.09;5064607;28;20385;-45
2023/10/08 10:10:30;;;;;;;1999.90;999.90;;;;;;;23.82;81.39;96191.28;5063852;28;20216;-46
2023/10/08 10:13:16;;;;;;;1999.90;999.90;;;;;;;23.52;82.32;96195.06;5064064;28;20162;-48
2023/10/08 10:15:43;;;;;;;1999.90;999.90;;;;;;;23.38;84.44;96197.75;5065023;28;20175;-48
2023/10/08 10:18:13;;;;;;;1999.90;999.90;;;;;;;23.38;84.50;96195.72;5064166;28;20166;-49
2023/10/08 10:20:45;;;;;;;1999.90;999.90;;;;;;;23.32;83.15;96196.81;5064782;28;20173;-48
2023/10/08 10:23:34;;;;;;;1999.90;999.90;;;;;;;23.33;84.34;96184.41;5064519;28;20180;-47
2023/10/08 10:25:59;;;;;;;1999.90;999.90;;;;;;;23.17;84.01;96195.88;5048613;28;20178;-47
2023/10/08 10:28:24;;;;;;;1999.90;999.90;;;;;;;23.04;84.47;96195.25;5064007;28;20273;-49
2023/10/08 10:30:51;;;;;;;1999.90;999.90;;;;;;;23.07;85.88;96192.31;5064003;28;20304;-47
2023/10/08 10:33:16;;;;;;;1999.90;999.90;;;;;;;22.75;89.73;96194.91;5064175;28;20253;-48
2023/10/08 10:35:50;;;;;;;1999.90;999.90;;;;;;;22.63;90.56;96201.41;5064198;28;20170;-49
2023/10/08 10:38:20;;;;;;;1999.90;999.90;;;;;;;22.70;91.69;96201.91;5063587;28;20166;-51
2023/10/08 10:40:56;;;;;;;1999.90;999.90;;;;;;;22.66;99.74;96192.13;5064322;28;20170;-55
2023/10/08 10:43:30;;;;;;;1999.90;999.90;;;;;;;22.57;99.09;96203.28;5064321;28;20158;-58
2023/10/08 10:45:56;;;;;;;1999.90;999.90;;;;;;;22.65;96.42;96193.38;5064334;28;20233;-57
2023/10/08 10:48:22;;;;;;;1999.90;999.90;;;;;;;22.52;99.65;96199.84;5063747;28;20162;-58
2023/10/08 10:53:32;;;;;;;1999.90;999.90;;;;;;;22.46;100.00;96198.88;5064701;28;20151;-56
2023/10/08 10:56:09;;;;;;;1999.90;999.90;;;;;;;22.38;100.00;96189.28;5063737;28;20374;-58
2023/10/08 10:58:39;;;;;;;1999.90;999.90;;;;;;;22.38;100.00;96197.63;5063600;28;20185;-57
2023/10/08 11:01:15;;;;;;;1999.90;999.90;;;;;;;22.33;98.14;96184.31;5063974;28;20165;-59
2023/10/08 11:03:42;;;;;;;1999.90;999.90;;;;;;;22.29;100.00;96194.81;5064175;28;20180;-57
2023/10/08 11:06:15;;;;;;;1999.90;999.90;;;;;;;22.31;100.00;96186.78;5063582;28;20288;-54
2023/10/08 11:08:45;;;;;;;1999.90;999.90;;;;;;;22.30;100.00;96184.47;5064206;28;20162;-52
2023/10/08 11:11:11;;;;;;;1999.90;999.90;;;;;;;22.29;100.00;96182.94;5063867;28;20182;-50
2023/10/08 11:13:39;;;;;;;1999.90;999.90;;;;;;;22.32;100.00;96177.19;5064003;28;20166;-53
2023/10/08 11:16:08;;;;;;;1999.90;999.90;;;;;;;22.29;100.00;96172.53;5063144;28;20241;-49
2023/10/08 11:18:35;;;;;;;1999.90;999.90;;;;;;;22.25;100.00;96163.56;5063219;28;20165;-50
2023/10/08 11:21:33;;;;;;;1999.90;999.90;;;;;;;22.17;100.00;96169.88;5063289;28;20166;-50
2023/10/08 11:23:58;;;;;;;1999.90;999.90;;;;;;;22.13;100.00;96158.91;5063674;28;20178;-48
2023/10/08 11:26:35;;;;;;;1999.90;999.90;;;;;;;22.16;100.00;96158.00;5064084;28;20166;-47
2023/10/08 11:29:03;;;;;;;1999.90;999.90;;;;;;;22.09;100.00;96158.28;5064123;28;20158;-49
2023/10/08 11:31:29;;;;;;;1999.90;999.90;;;;;;;22.11;100.00;96153.00;5063191;28;20194;-53
2023/10/08 11:34:00;;;;;;;1999.90;999.90;;;;;;;21.96;100.00;96160.38;5063236;28;20178;-54
2023/10/08 11:36:27;;;;;;;1999.90;999.90;;;;;;;21.85;100.00;96171.16;5063753;28;20189;-49
2023/10/08 11:39:09;;;;;;;1999.90;999.90;;;;;;;21.80;100.00;96168.19;5063784;28;20173;-48
2023/10/08 11:41:50;;;;;;;1999.90;999.90;;;;;;;21.70;100.00;96153.47;5063255;28;20170;-48
2023/10/08 11:44:19;;;;;;;1999.90;999.90;;;;;;;21.79;100.00;96161.88;5063968;28;20233;-48
2023/10/08 11:46:45;;;;;;;1999.90;999.90;;;;;;;21.86;100.00;96150.44;5067349;28;20284;-49
2023/10/08 11:49:17;;;;;;;1999.90;999.90;;;;;;;21.88;100.00;96155.56;5067224;28;20178;-49
2023/10/08 11:51:45;;;;;;;1999.90;999.90;;;;;;;21.93;100.00;96152.94;5066786;28;20206;-49
2023/10/08 11:54:11;;;;;;;1999.90;999.90;;;;;;;21.99;100.00;96158.69;5066754;28;20205;-54
2023/10/08 11:56:38;;;;;;;1999.90;999.90;;;;;;;22.01;100.00;96153.47;5066704;28;20174;-50
2023/10/08 11:59:08;;;;;;;1999.90;999.90;;;;;;;22.10;100.00;96159.81;5066558;28;20198;-50
2023/10/08 12:01:37;;;;;;;1999.90;999.90;;;;;;;22.09;100.00;96158.28;5066697;28;20178;-51
2023/10/08 12:04:03;;;;;;;1999.90;999.90;;;;;;;22.22;100.00;96156.13;5066600;28;20178;-48
2023/10/08 12:06:32;;;;;;;1999.90;999.90;;;;;;;22.03;100.00;96154.53;5066312;28;20260;-50
2023/10/08 12:09:11;;;;;;;1999.90;999.90;;;;;;;22.14;100.00;96148.53;5066945;28;20360;-52
2023/10/08 12:11:37;;;;;;;1999.90;999.90;;;;;;;22.18;100.00;96152.72;5067168;28;20209;-51
2023/10/08 12:14:03;;;;;;;1999.90;999.90;;;;;;;22.22;100.00;96156.13;5066331;28;20174;-48
2023/10/08 12:16:35;;;;;;;1999.90;999.90;;;;;;;22.21;100.00;96151.81;5066204;28;20183;-49
2023/10/08 12:19:01;;;;;;;1999.90;999.90;;;;;;;22.08;100.00;96153.16;5066786;28;20475;-52
2023/10/08 12:21:30;;;;;;;1999.90;999.90;;;;;;;22.05;100.00;96146.53;5066896;28;20178;-49
2023/10/08 12:23:59;;;;;;;1999.90;999.90;;;;;;;22.04;100.00;96153.31;5066419;28;20289;-52
2023/10/08 12:26:25;;;;;;;1999.90;999.90;;;;;;;22.05;100.00;96149.31;5066758;28;20174;-51